Time;durP1;ratioP1;P1;durP2;ratioP2;P2;SDS_P1;SDS_P2;PMS_P1;PMS_P2;Temp;Humidity;BMP_temperature;BMP_pressure;BME280_temperature;BME280_humidity;BME280_pressure;Samples;Min_cycle;Max_cycle;Signal;HPM_P1;HPM_P2
2023/08/18 00:00:12;;;;;;;7.70;4.90;;;;;;;22.68;62.27;101118.40;107367;1265;72989;-72
2023/08/18 00:02:39;;;;;;;9.20;4.90;;;;;;;22.68;62.55;101118.94;107338;1266;72870;-72
2023/08/18 00:05:07;;;;;;;8.40;5.10;;;;;;;22.67;62.71;101115.08;107409;1266;73572;-71
2023/08/18 00:07:34;;;;;;;7.10;4.80;;;;;;;22.65;62.81;101116.33;107191;1263;62206;-70
2023/08/18 00:10:02;;;;;;;5.70;4.80;;;;;;;22.65;62.96;101120.68;107222;1266;59984;-71
2023/08/18 00:12:29;;;;;;;5.90;4.70;;;;;;;22.63;63.28;101117.41;107449;1266;73038;-71
2023/08/18 00:14:56;;;;;;;7.10;4.90;;;;;;;22.62;63.52;101117.48;108355;1253;71964;-71
2023/08/18 00:17:23;;;;;;;7.50;4.70;;;;;;;22.57;63.63;101114.33;108125;1253;72437;-72
2023/08/18 00:19:50;;;;;;;8.20;5.10;;;;;;;22.52;63.86;101112.58;108245;1256;61895;-71
2023/08/18 00:22:17;;;;;;;8.60;5.20;;;;;;;22.49;63.97;101110.73;108054;1257;61232;-71
2023/08/18 00:24:44;;;;;;;7.20;5.10;;;;;;;22.45;64.56;101110.52;108120;1253;72836;-71
2023/08/18 00:27:11;;;;;;;8.00;5.10;;;;;;;22.46;64.80;101111.79;108077;1253;72867;-72
2023/08/18 00:29:39;;;;;;;7.10;5.00;;;;;;;22.45;64.87;101111.67;108164;1253;71661;-71
2023/08/18 00:32:06;;;;;;;7.80;5.30;;;;;;;22.42;65.05;101108.41;108506;1253;60891;-71
2023/08/18 00:34:34;;;;;;;9.30;5.40;;;;;;;22.38;65.00;101109.25;108095;1255;60355;-72
2023/08/18 00:37:01;;;;;;;6.60;4.80;;;;;;;22.37;65.26;101107.03;108194;1256;72865;-70
2023/08/18 00:39:28;;;;;;;7.40;5.20;;;;;;;22.36;65.39;101104.83;108157;1253;72693;-71
2023/08/18 00:41:56;;;;;;;7.00;5.00;;;;;;;22.35;65.28;101107.27;108071;1253;72758;-71
2023/08/18 00:44:24;;;;;;;7.40;5.60;;;;;;;22.34;65.35;101108.55;107988;1254;61874;-71
2023/08/18 00:46:52;;;;;;;7.70;5.10;;;;;;;22.34;65.28;101105.47;108356;1253;59650;-71
2023/08/18 00:49:19;;;;;;;8.60;5.60;;;;;;;22.33;65.18;101105.83;108040;1253;73387;-71
2023/08/18 00:51:46;;;;;;;6.50;5.30;;;;;;;22.33;65.11;101102.57;108024;1253;72832;-72
2023/08/18 00:54:13;;;;;;;6.40;5.40;;;;;;;22.31;65.07;101102.78;108124;1256;71829;-69
2023/08/18 00:56:42;;;;;;;6.20;5.20;;;;;;;22.25;64.82;101102.23;108172;1253;61039;-71
2023/08/18 00:59:10;;;;;;;6.90;5.40;;;;;;;22.20;64.83;101100.72;108082;1254;60383;-70
2023/08/18 01:01:37;;;;;;;7.60;5.20;;;;;;;22.18;64.67;101100.96;107941;1259;72795;-70
2023/08/18 01:04:05;;;;;;;7.00;4.70;;;;;;;22.15;64.80;101100.41;108125;1253;73088;-70
2023/08/18 01:06:32;;;;;;;8.70;5.10;;;;;;;22.12;64.76;101098.47;108097;1253;72879;-71
2023/08/18 01:09:00;;;;;;;6.60;4.70;;;;;;;22.09;64.78;101098.88;108196;1254;60472;-71
2023/08/18 01:11:38;;;;;;;7.00;4.90;;;;;;;22.06;64.84;101097.18;108037;1253;60325;-71
2023/08/18 01:14:14;;;;;;;6.60;5.10;;;;;;;21.99;64.82;101099.20;108113;1257;71853;-71
2023/08/18 01:16:43;;;;;;;6.90;5.30;;;;;;;21.94;64.99;101098.77;108180;1257;71798;-70
2023/08/18 01:19:10;;;;;;;7.80;5.20;;;;;;;21.92;65.15;101100.27;108027;1256;72789;-70
2023/08/18 01:21:37;;;;;;;6.70;5.10;;;;;;;21.89;65.34;101098.98;108104;1254;61983;-71
2023/08/18 01:24:08;;;;;;;7.10;5.30;;;;;;;21.85;65.29;101104.55;107966;1253;60471;-71
2023/08/18 01:26:35;;;;;;;8.40;5.20;;;;;;;21.82;65.49;101105.42;108125;1253;72876;-71
2023/08/18 01:29:02;;;;;;;7.70;5.60;;;;;;;21.79;65.45;101102.89;108257;1257;72561;-72
2023/08/18 01:31:31;;;;;;;9.00;5.70;;;;;;;21.77;65.67;101096.04;108040;1258;71655;-71
2023/08/18 01:34:00;;;;;;;8.00;5.20;;;;;;;21.76;65.95;101100.20;108109;1254;60503;-69
2023/08/18 01:36:33;;;;;;;7.00;5.50;;;;;;;21.75;66.13;101100.86;108073;1257;60436;-72
2023/08/18 01:39:02;;;;;;;7.70;5.30;;;;;;;21.74;66.42;101107.04;108274;1257;73403;-70
2023/08/18 01:41:31;;;;;;;6.30;5.30;;;;;;;21.73;66.51;101113.29;108208;1257;73899;-70
2023/08/18 01:43:59;;;;;;;8.00;5.20;;;;;;;21.73;66.62;101111.61;107900;1255;72626;-71
2023/08/18 01:46:26;;;;;;;7.80;5.20;;;;;;;21.73;66.72;101109.47;107993;1255;60441;-70
2023/08/18 01:48:53;;;;;;;9.30;5.40;;;;;;;21.74;66.77;101110.98;108130;1254;60405;-70
2023/08/18 01:51:20;;;;;;;8.20;5.60;;;;;;;21.73;66.80;101111.27;107914;1253;71535;-70
2023/08/18 01:53:46;;;;;;;7.70;5.70;;;;;;;21.73;66.70;101111.78;108122;1257;71509;-71
2023/08/18 01:56:13;;;;;;;6.90;5.00;;;;;;;21.72;66.90;101109.04;108163;1256;72596;-71
2023/08/18 01:58:40;;;;;;;7.20;5.50;;;;;;;21.71;66.56;101111.45;108028;1259;60398;-71
2023/08/18 02:01:06;;;;;;;7.80;5.90;;;;;;;21.68;66.70;101115.89;108067;1255;59600;-71
2023/08/18 02:03:33;;;;;;;8.70;6.20;;;;;;;21.65;66.98;101120.05;108152;1254;72906;-71
2023/08/18 02:06:00;;;;;;;7.30;5.80;;;;;;;21.61;67.12;101120.65;107965;1255;71741;-71
2023/08/18 02:08:27;;;;;;;7.40;6.00;;;;;;;21.61;67.40;101121.92;108143;1257;72547;-71
2023/08/18 02:11:13;;;;;;;7.60;6.20;;;;;;;21.58;67.37;101123.73;108033;1253;62259;-71
2023/08/18 02:13:41;;;;;;;8.70;6.90;;;;;;;21.52;67.48;101121.84;108069;1255;59570;-71
2023/08/18 02:16:07;;;;;;;8.70;6.10;;;;;;;21.51;67.50;101124.05;108067;1254;71577;-70
2023/08/18 02:18:35;;;;;;;7.80;6.20;;;;;;;21.50;67.51;101123.23;108102;1254;72721;-71
2023/08/18 02:21:02;;;;;;;7.90;6.40;;;;;;;21.50;67.71;101122.37;107934;1254;72360;-72
2023/08/18 02:23:29;;;;;;;8.70;6.20;;;;;;;21.47;67.84;101124.98;107976;1256;61726;-71
2023/08/18 02:26:03;;;;;;;7.70;6.40;;;;;;;21.47;67.82;101123.09;108248;1254;60290;-72
2023/08/18 02:28:32;;;;;;;8.80;6.00;;;;;;;21.45;67.89;101124.39;108186;1255;73100;-72
2023/08/18 02:31:04;;;;;;;8.50;6.20;;;;;;;21.46;68.05;101127.95;108123;1255;71213;-72
2023/08/18 02:33:32;;;;;;;9.60;6.40;;;;;;;21.46;68.16;101126.61;108059;1257;71446;-70
2023/08/18 02:35:59;;;;;;;8.00;6.00;;;;;;;21.47;68.21;101132.23;108155;1254;60486;-72
2023/08/18 02:38:28;;;;;;;10.20;6.40;;;;;;;21.48;67.95;101135.44;107946;1254;61347;-71
2023/08/18 02:40:55;;;;;;;9.90;6.50;;;;;;;21.46;67.77;101135.45;108085;1254;72661;-70
2023/08/18 02:43:22;;;;;;;9.50;6.60;;;;;;;21.42;67.84;101136.92;108078;1254;72783;-70
2023/08/18 02:45:56;;;;;;;11.00;7.30;;;;;;;21.41;67.90;101134.45;108139;1257;72647;-71
2023/08/18 02:48:26;;;;;;;7.80;6.60;;;;;;;21.41;67.81;101135.67;108060;1254;61219;-71
2023/08/18 02:51:05;;;;;;;8.30;6.90;;;;;;;21.38;67.57;101135.38;108144;1255;59464;-72
2023/08/18 02:53:32;;;;;;;8.30;6.80;;;;;;;21.35;67.63;101134.46;107987;1254;71404;-71
2023/08/18 02:56:00;;;;;;;9.40;6.50;;;;;;;21.33;67.49;101132.55;108124;1254;73757;-70
2023/08/18 02:58:33;;;;;;;8.10;7.10;;;;;;;21.30;67.30;101140.66;107956;1260;72780;-71
2023/08/18 03:01:04;;;;;;;8.50;7.00;;;;;;;21.31;67.24;101137.69;108146;1253;61142;-72
2023/08/18 03:03:33;;;;;;;10.70;7.20;;;;;;;21.33;67.18;101143.30;108167;1256;59418;-71
2023/08/18 03:06:07;;;;;;;7.80;6.70;;;;;;;21.37;67.19;101140.29;108110;1254;73128;-71
2023/08/18 03:08:35;;;;;;;11.30;6.60;;;;;;;21.41;67.42;101142.14;108054;1254;72845;-71
2023/08/18 03:11:03;;;;;;;9.40;6.40;;;;;;;21.44;67.35;101138.11;108030;1254;72379;-71
2023/08/18 03:13:31;;;;;;;7.90;6.50;;;;;;;21.49;67.30;101140.91;107963;1254;61854;-71
2023/08/18 03:15:58;;;;;;;8.60;6.70;;;;;;;21.50;67.39;101142.73;108096;1254;60554;-72
2023/08/18 03:18:25;;;;;;;8.40;6.40;;;;;;;21.52;67.37;101142.63;108131;1253;73030;-71
2023/08/18 03:20:59;;;;;;;10.10;6.90;;;;;;;21.56;67.19;101146.27;108052;1256;72830;-72
2023/08/18 03:23:26;;;;;;;8.80;7.20;;;;;;;21.59;67.18;101144.98;108656;1255;71041;-72
2023/08/18 03:26:03;;;;;;;9.00;7.00;;;;;;;21.61;66.93;101145.56;108127;1253;60858;-72
2023/08/18 03:28:32;;;;;;;9.00;6.70;;;;;;;21.63;66.96;101150.48;107897;1256;59491;-69
2023/08/18 03:31:04;;;;;;;9.70;6.20;;;;;;;21.66;66.63;101149.77;108002;1258;73031;-70
2023/08/18 03:33:32;;;;;;;8.70;7.10;;;;;;;21.68;66.59;101150.56;107975;1256;72604;-72
2023/08/18 03:36:00;;;;;;;7.50;6.60;;;;;;;21.71;66.21;101150.44;108054;1253;72766;-71
2023/08/18 03:38:27;;;;;;;9.20;6.70;;;;;;;21.74;66.39;101155.18;108065;1254;61785;-71
2023/08/18 03:41:05;;;;;;;7.80;6.90;;;;;;;21.75;66.18;101155.80;108132;1254;60348;-71
2023/08/18 03:43:33;;;;;;;7.50;6.60;;;;;;;21.78;66.12;101156.86;108047;1254;72712;-71
2023/08/18 03:46:10;;;;;;;8.70;6.70;;;;;;;21.85;65.71;101156.60;108167;1254;72725;-71
2023/08/18 03:48:37;;;;;;;10.40;6.70;;;;;;;21.89;65.60;101158.69;107926;1254;72705;-71
2023/08/18 03:51:05;;;;;;;7.40;6.20;;;;;;;21.92;65.52;101157.80;108113;1254;62092;-71
2023/08/18 03:53:31;;;;;;;10.90;7.20;;;;;;;21.98;65.48;101160.27;108009;1253;60283;-71
2023/08/18 03:56:00;;;;;;;8.40;6.60;;;;;;;22.05;65.04;101161.97;108031;1257;73845;-71
2023/08/18 03:58:27;;;;;;;8.60;6.60;;;;;;;22.10;64.75;101166.67;108035;1257;72758;-70
2023/08/18 04:01:01;;;;;;;9.80;6.40;;;;;;;22.14;64.50;101165.88;107956;1256;73005;-71
2023/08/18 04:03:29;;;;;;;9.90;5.80;;;;;;;22.20;64.30;101171.47;108014;1254;62079;-70
2023/08/18 04:05:56;;;;;;;8.00;6.80;;;;;;;22.28;64.22;101173.27;108005;1257;60407;-72
2023/08/18 04:08:23;;;;;;;8.10;6.70;;;;;;;22.34;64.01;101169.57;108014;1253;73896;-70
2023/08/18 04:10:50;;;;;;;10.20;7.20;;;;;;;22.41;63.78;101167.55;108024;1253;71896;-70
2023/08/18 04:13:17;;;;;;;7.00;6.20;;;;;;;22.49;63.48;101169.25;107997;1256;72444;-70
2023/08/18 04:15:46;;;;;;;8.10;6.70;;;;;;;22.56;63.09;101170.92;108344;1255;62012;-71
2023/08/18 04:18:13;;;;;;;8.80;6.50;;;;;;;22.62;62.81;101169.23;108110;1254;61984;-70
2023/08/18 04:20:40;;;;;;;7.90;6.60;;;;;;;22.67;62.74;101168.46;108084;1254;74019;-72
2023/08/18 04:23:07;;;;;;;7.00;6.30;;;;;;;22.74;62.58;101167.79;108131;1254;72842;-72
2023/08/18 04:25:35;;;;;;;9.30;6.20;;;;;;;22.81;62.20;101167.54;108035;1253;72797;-72
2023/08/18 04:28:02;;;;;;;8.10;6.00;;;;;;;22.88;61.95;101171.14;108070;1254;62752;-72
2023/08/18 04:30:30;;;;;;;7.60;6.20;;;;;;;22.93;61.97;101172.14;108093;1254;60265;-73
2023/08/18 04:32:58;;;;;;;8.70;6.20;;;;;;;23.00;62.00;101173.13;108106;1254;73776;-72
2023/08/18 04:35:29;;;;;;;7.30;6.40;;;;;;;23.10;61.79;101172.83;108217;1253;72723;-73
2023/08/18 04:37:56;;;;;;;7.80;6.50;;;;;;;23.23;61.66;101174.06;108295;1256;73128;-73
2023/08/18 04:40:24;;;;;;;8.50;6.00;;;;;;;23.33;61.36;101172.70;108279;1254;61839;-72
2023/08/18 04:42:53;;;;;;;9.50;5.80;;;;;;;23.43;60.75;101165.84;107947;1254;60350;-73
2023/08/18 04:45:20;;;;;;;8.60;6.10;;;;;;;23.54;60.26;101173.29;108077;1253;72802;-70
2023/08/18 04:47:47;;;;;;;6.80;5.70;;;;;;;23.66;59.76;101169.77;108087;1253;72879;-71
2023/08/18 04:50:15;;;;;;;7.70;6.10;;;;;;;23.74;59.33;101163.02;108125;1254;72720;-71
2023/08/18 04:52:43;;;;;;;8.10;5.90;;;;;;;23.84;59.04;101164.08;108059;1254;61873;-71
2023/08/18 04:55:09;;;;;;;9.10;6.10;;;;;;;23.93;58.77;101163.86;108084;1254;60415;-71
2023/08/18 04:57:37;;;;;;;9.60;6.90;;;;;;;24.03;58.49;101162.54;107993;1254;73878;-72
2023/08/18 05:00:06;;;;;;;9.30;6.70;;;;;;;24.10;58.32;101163.27;108111;1253;72861;-71
2023/08/18 05:02:34;;;;;;;10.60;6.70;;;;;;;24.19;58.09;101164.13;108234;1254;72457;-71
2023/08/18 05:05:05;;;;;;;8.20;6.30;;;;;;;24.27;58.06;101166.92;108089;1254;60333;-71
2023/08/18 05:07:33;;;;;;;7.80;6.60;;;;;;;24.36;58.05;101167.09;108069;1253;60349;-71
2023/08/18 05:10:00;;;;;;;8.60;6.00;;;;;;;24.43;57.76;101166.04;107870;1253;73878;-71
2023/08/18 05:12:27;;;;;;;10.20;6.00;;;;;;;24.49;57.31;101163.23;108314;1254;71632;-72
2023/08/18 05:14:55;;;;;;;8.10;6.00;;;;;;;24.55;57.13;101161.80;108001;1253;72628;-71
2023/08/18 05:17:21;;;;;;;8.30;6.10;;;;;;;24.66;56.91;101164.67;107989;1253;61788;-71
2023/08/18 05:19:49;;;;;;;7.50;5.90;;;;;;;24.79;56.55;101161.96;108122;1254;61347;-72
2023/08/18 05:22:15;;;;;;;8.10;6.00;;;;;;;24.87;56.22;101161.55;108134;1253;74327;-72
2023/08/18 05:24:45;;;;;;;7.40;5.80;;;;;;;24.93;55.94;101161.99;107976;1254;72765;-72
2023/08/18 05:27:11;;;;;;;7.40;6.00;;;;;;;25.01;55.79;101159.36;107991;1254;71207;-71
2023/08/18 05:29:38;;;;;;;7.00;6.00;;;;;;;25.10;55.61;101156.63;108137;1253;60355;-71
2023/08/18 05:32:06;;;;;;;9.00;6.30;;;;;;;25.21;55.31;101158.34;108027;1253;61116;-72
2023/08/18 05:34:33;;;;;;;9.20;5.90;;;;;;;25.30;54.78;101154.01;108040;1253;73563;-72
2023/08/18 05:37:00;;;;;;;7.60;5.70;;;;;;;25.39;54.82;101157.65;108006;1254;72737;-73
2023/08/18 05:39:27;;;;;;;8.10;6.00;;;;;;;25.52;54.83;101156.26;108013;1254;71240;-71
2023/08/18 05:41:54;;;;;;;10.10;6.30;;;;;;;25.64;54.66;101155.37;108118;1253;62476;-71
2023/08/18 05:44:21;;;;;;;9.20;6.10;;;;;;;25.72;54.07;101155.14;108120;1253;60448;-71
2023/08/18 05:46:48;;;;;;;8.00;5.70;;;;;;;25.83;53.41;101156.96;108050;1254;73867;-71
2023/08/18 05:49:15;;;;;;;8.60;5.50;;;;;;;25.95;53.58;101162.10;107979;1254;72683;-71
2023/08/18 05:51:44;;;;;;;8.10;5.50;;;;;;;26.08;53.67;101159.44;107884;1254;72752;-71
2023/08/18 05:54:11;;;;;;;7.60;5.60;;;;;;;26.21;53.38;101159.89;108146;1253;62954;-71
2023/08/18 05:56:39;;;;;;;8.10;5.60;;;;;;;26.33;53.02;101158.95;107965;1253;60768;-72
2023/08/18 05:59:07;;;;;;;5.90;5.20;;;;;;;26.44;52.72;101157.39;108046;1253;74000;-72
2023/08/18 06:01:36;;;;;;;8.00;5.50;;;;;;;26.58;52.77;101156.93;108065;1254;71643;-71
2023/08/18 06:04:05;;;;;;;6.90;5.70;;;;;;;26.74;52.56;101155.83;107961;1254;72413;-72
2023/08/18 06:06:33;;;;;;;7.20;4.70;;;;;;;26.86;51.99;101162.11;108090;1254;60312;-72
2023/08/18 06:09:02;;;;;;;8.70;5.80;;;;;;;26.87;51.31;101157.75;108149;1252;61504;-72
2023/08/18 06:11:30;;;;;;;7.80;6.00;;;;;;;26.96;50.82;101158.04;108138;1256;75062;-72
2023/08/18 06:13:59;;;;;;;8.20;5.40;;;;;;;27.07;50.77;101159.33;108055;1253;72299;-72
2023/08/18 06:16:26;;;;;;;8.10;6.10;;;;;;;27.19;50.41;101160.36;108038;1256;72141;-73
2023/08/18 06:18:53;;;;;;;8.80;5.50;;;;;;;27.33;50.36;101160.36;108154;1253;61518;-72
2023/08/18 06:21:20;;;;;;;6.40;4.90;;;;;;;27.50;50.00;101157.31;108128;1253;61384;-73
2023/08/18 06:23:48;;;;;;;8.50;5.60;;;;;;;27.62;49.29;101154.92;108154;1254;72594;-73
2023/08/18 06:26:18;;;;;;;7.90;6.10;;;;;;;27.71;49.11;101157.06;108168;1253;70649;-73
2023/08/18 06:28:49;;;;;;;6.60;5.30;;;;;;;27.79;48.75;101160.17;107996;1253;62662;-71
2023/08/18 06:31:16;;;;;;;7.80;5.60;;;;;;;27.86;48.43;101159.05;108135;1253;61224;-72
2023/08/18 06:33:43;;;;;;;7.30;5.20;;;;;;;27.90;48.24;101156.48;108088;1253;60352;-72
2023/08/18 06:36:10;;;;;;;6.40;5.70;;;;;;;27.94;48.25;101157.11;108084;1253;74668;-71
2023/08/18 06:38:37;;;;;;;7.90;4.40;;;;;;;28.03;48.05;101161.38;108086;1253;73668;-71
2023/08/18 06:41:06;;;;;;;5.10;4.10;;;;;;;28.13;47.45;101160.10;108015;1254;64105;-71
2023/08/18 06:43:33;;;;;;;5.30;4.30;;;;;;;28.24;47.28;101155.67;108062;1253;60335;-71
2023/08/18 06:46:00;;;;;;;7.10;4.10;;;;;;;28.37;47.09;101156.48;108119;1253;59315;-71
2023/08/18 06:48:27;;;;;;;8.20;4.10;;;;;;;28.51;46.67;101158.25;108090;1254;65067;-72
2023/08/18 06:50:54;;;;;;;7.90;4.30;;;;;;;28.64;46.87;101160.92;108033;1253;72804;-73
2023/08/18 06:53:21;;;;;;;6.50;4.00;;;;;;;28.74;46.89;101163.23;108047;1253;64161;-72
2023/08/18 06:55:48;;;;;;;5.60;3.80;;;;;;;28.79;45.75;101161.41;108020;1254;60444;-72
2023/08/18 06:58:31;;;;;;;7.20;4.30;;;;;;;28.79;45.18;101161.81;108142;1253;60383;-72
2023/08/18 07:00:58;;;;;;;7.40;4.10;;;;;;;28.82;44.81;101161.32;108112;1253;63979;-71
2023/08/18 07:03:25;;;;;;;5.60;4.20;;;;;;;28.85;44.75;101163.26;108105;1253;64272;-71
2023/08/18 07:05:52;;;;;;;6.00;4.50;;;;;;;28.92;44.76;101162.05;108095;1253;72746;-72
2023/08/18 07:08:21;;;;;;;5.40;4.70;;;;;;;28.97;44.44;101158.67;108033;1254;60427;-71
2023/08/18 07:10:48;;;;;;;7.00;4.50;;;;;;;29.08;44.62;101164.20;108135;1254;60902;-71
2023/08/18 07:13:15;;;;;;;5.50;4.30;;;;;;;29.23;44.18;101165.70;108185;1253;65067;-71
2023/08/18 07:15:42;;;;;;;6.50;4.60;;;;;;;29.32;43.82;101160.65;108160;1253;72545;-72
2023/08/18 07:18:09;;;;;;;5.60;4.10;;;;;;;29.44;43.34;101162.95;107947;1253;72151;-70
2023/08/18 07:20:36;;;;;;;5.70;3.70;;;;;;;29.50;43.10;101165.87;107915;1253;60300;-71
2023/08/18 07:23:04;;;;;;;5.90;3.70;;;;;;;29.52;42.51;101164.48;107974;1254;60277;-71
2023/08/18 07:25:31;;;;;;;7.50;4.00;;;;;;;29.49;42.27;101163.89;108112;1254;65277;-71
2023/08/18 07:27:58;;;;;;;5.80;3.60;;;;;;;29.49;42.26;101160.97;107984;1253;63926;-71
2023/08/18 07:30:25;;;;;;;5.20;3.30;;;;;;;29.57;42.19;101160.93;107944;1254;63776;-71
2023/08/18 07:32:54;;;;;;;6.80;3.50;;;;;;;29.65;42.25;101162.66;108121;1253;60624;-71
2023/08/18 07:35:22;;;;;;;4.60;3.20;;;;;;;29.70;42.09;101165.08;108034;1253;60326;-72
2023/08/18 07:37:50;;;;;;;7.20;3.80;;;;;;;29.71;42.14;101165.33;108043;1253;65091;-71
2023/08/18 07:40:23;;;;;;;5.80;3.50;;;;;;;29.75;42.23;101162.79;108079;1254;64036;-76
2023/08/18 07:42:50;;;;;;;5.60;3.50;;;;;;;29.82;42.43;101161.67;108123;1253;63988;-84
2023/08/18 07:45:17;;;;;;;6.80;3.80;;;;;;;29.90;42.35;101165.02;108165;1253;60501;-82
2023/08/18 07:47:45;;;;;;;5.50;3.60;;;;;;;29.97;42.12;101163.70;108064;1253;60440;-81
2023/08/18 07:50:12;;;;;;;6.20;3.40;;;;;;;30.02;42.16;101162.73;108100;1256;65023;-81
2023/08/18 07:52:39;;;;;;;6.00;3.60;;;;;;;30.06;42.17;101165.92;108192;1254;73907;-82
2023/08/18 07:55:08;;;;;;;5.60;3.40;;;;;;;30.09;42.24;101165.17;108051;1253;63917;-81
2023/08/18 07:57:36;;;;;;;4.10;3.20;;;;;;;30.10;41.77;101161.17;108072;1253;60433;-84
2023/08/18 08:00:14;;;;;;;5.50;3.30;;;;;;;30.06;41.35;101162.77;108159;1253;60441;-82
2023/08/18 08:02:46;;;;;;;4.80;3.30;;;;;;;30.01;40.98;101163.42;108002;1253;65246;-82
2023/08/18 08:05:20;;;;;;;5.30;2.70;;;;;;;30.01;41.23;101163.59;108013;1253;64403;-81
2023/08/18 08:07:47;;;;;;;4.30;3.00;;;;;;;30.04;41.24;101165.27;107993;1256;66491;-81
2023/08/18 08:10:15;;;;;;;4.60;3.20;;;;;;;30.07;41.09;101161.69;108042;1253;60326;-80
2023/08/18 08:12:42;;;;;;;4.80;3.30;;;;;;;30.16;41.35;101157.64;108036;1253;60398;-82
2023/08/18 08:15:10;;;;;;;5.90;2.80;;;;;;;30.27;40.74;101159.02;108057;1253;63811;-80
2023/08/18 08:17:38;;;;;;;4.60;2.80;;;;;;;30.39;40.18;101158.69;107974;1253;64161;-81
2023/08/18 08:20:16;;;;;;;4.70;2.80;;;;;;;30.51;38.85;101151.55;108133;1253;62536;-79
2023/08/18 08:22:45;;;;;;;5.60;3.00;;;;;;;30.49;38.91;101154.06;108160;1253;60404;-79
2023/08/18 08:25:15;;;;;;;4.80;2.80;;;;;;;30.59;38.34;101154.48;107993;1253;60271;-79
2023/08/18 08:27:43;;;;;;;4.70;2.80;;;;;;;30.66;37.50;101152.57;107974;1258;65372;-79
2023/08/18 08:30:11;;;;;;;4.30;2.50;;;;;;;30.68;36.95;101150.54;108039;1253;64246;-83
2023/08/18 08:32:59;;;;;;;4.70;2.30;;;;;;;30.68;36.79;101155.67;107832;1259;63938;-80
2023/08/18 08:35:25;;;;;;;4.60;2.40;;;;;;;30.72;35.63;101149.57;108108;1253;60402;-79
2023/08/18 08:37:56;;;;;;;3.90;2.40;;;;;;;30.83;35.82;101151.42;108017;1254;60348;-80
2023/08/18 08:40:24;;;;;;;4.20;2.40;;;;;;;30.98;35.47;101150.27;108005;1253;73886;-81
2023/08/18 08:42:57;;;;;;;4.30;2.00;;;;;;;31.17;35.63;101147.50;108026;1253;64128;-79
2023/08/18 08:45:28;;;;;;;4.20;2.70;;;;;;;31.43;34.95;101145.55;108053;1254;63828;-79
2023/08/18 08:47:59;;;;;;;4.90;2.20;;;;;;;31.51;34.44;101143.73;108053;1253;60461;-78
2023/08/18 08:50:28;;;;;;;3.80;2.40;;;;;;;31.73;34.70;101147.30;107977;1253;60416;-78
2023/08/18 08:53:00;;;;;;;6.40;2.50;;;;;;;32.01;34.78;101144.44;108013;1253;65657;-75
2023/08/18 08:55:30;;;;;;;4.00;2.40;;;;;;;32.22;33.50;101141.59;107998;1253;64117;-79
2023/08/18 08:58:02;;;;;;;5.40;2.60;;;;;;;32.38;33.19;101141.86;108034;1253;64067;-79
2023/08/18 09:00:31;;;;;;;5.10;2.40;;;;;;;32.51;33.26;101141.90;108087;1254;59602;-82
2023/08/18 09:03:00;;;;;;;3.70;2.30;;;;;;;32.64;33.53;101144.60;108179;1254;59248;-81
2023/08/18 09:05:32;;;;;;;4.50;2.50;;;;;;;32.72;32.98;101146.17;108103;1253;63758;-81
2023/08/18 09:08:00;;;;;;;3.80;2.30;;;;;;;32.71;31.38;101139.86;107972;1254;74111;-82
2023/08/18 09:10:29;;;;;;;3.70;1.90;;;;;;;32.50;31.51;101144.80;107985;1253;63850;-82
2023/08/18 09:12:57;;;;;;;6.20;2.50;;;;;;;32.38;32.08;101140.66;107965;1253;60504;-81
2023/08/18 09:15:25;;;;;;;3.50;2.30;;;;;;;32.31;31.74;101141.75;108268;1252;60349;-84
2023/08/18 09:17:52;;;;;;;4.20;2.60;;;;;;;32.14;31.62;101141.48;108168;1253;63818;-83
2023/08/18 09:20:21;;;;;;;4.60;2.50;;;;;;;31.94;32.28;101140.69;108102;1253;62823;-84
2023/08/18 09:22:55;;;;;;;4.90;2.40;;;;;;;31.73;32.92;101142.88;108130;1253;62550;-84
2023/08/18 09:25:24;;;;;;;4.20;2.20;;;;;;;31.62;33.57;101141.25;108211;1254;60477;-83
2023/08/18 09:27:55;;;;;;;4.50;2.30;;;;;;;31.72;33.09;101137.27;108204;1253;60407;-84
2023/08/18 09:30:24;;;;;;;3.40;2.20;;;;;;;31.87;33.47;101131.98;108237;1253;63694;-83
2023/08/18 09:32:52;;;;;;;3.80;2.20;;;;;;;31.95;33.52;101134.70;108451;1254;64181;-84
2023/08/18 09:35:19;;;;;;;5.30;2.20;;;;;;;32.02;32.95;101131.96;108225;1253;63985;-84
2023/08/18 09:37:56;;;;;;;4.30;2.30;;;;;;;32.07;32.15;101130.09;108268;1253;60342;-83
2023/08/18 09:40:26;;;;;;;3.90;2.30;;;;;;;32.08;32.72;101134.74;108092;1253;60226;-83
2023/08/18 09:42:54;;;;;;;5.90;2.20;;;;;;;32.14;32.94;101132.95;108084;1254;66427;-84
2023/08/18 09:45:23;;;;;;;2.90;2.10;;;;;;;32.21;32.40;101130.45;108170;1253;63831;-81
2023/08/18 09:47:53;;;;;;;3.20;2.00;;;;;;;32.36;32.47;101129.60;108201;1253;64070;-82
2023/08/18 09:50:27;;;;;;;3.10;1.90;;;;;;;32.55;31.98;101126.82;108178;1253;60292;-82
2023/08/18 09:52:55;;;;;;;2.30;1.70;;;;;;;32.71;31.57;101122.16;108134;1253;60350;-82
2023/08/18 09:55:30;;;;;;;3.90;2.10;;;;;;;32.81;31.21;101124.30;108180;1253;65197;-80
2023/08/18 09:58:44;;;;;;;4.40;2.10;;;;;;;32.65;31.46;101130.92;108123;1254;64085;-82
2023/08/18 10:01:11;;;;;;;5.20;2.30;;;;;;;32.36;32.10;101130.09;107975;1253;64662;-83
2023/08/18 10:03:40;;;;;;;4.80;1.90;;;;;;;32.30;32.22;101129.05;108896;1253;59306;-82
2023/08/18 10:06:20;;;;;;;5.30;2.20;;;;;;;32.39;31.37;101128.34;108643;1253;59264;-82
2023/08/18 10:08:47;;;;;;;5.50;2.10;;;;;;;32.46;31.06;101125.30;108389;1253;64155;-84
2023/08/18 10:11:14;;;;;;;2.80;1.80;;;;;;;32.46;30.47;101128.14;108305;1252;62753;-84
2023/08/18 10:13:43;;;;;;;4.30;2.30;;;;;;;32.28;30.51;101127.06;108520;1253;63944;-84
2023/08/18 10:16:10;;;;;;;4.30;2.00;;;;;;;32.07;31.53;101134.98;108261;1253;59293;-83
2023/08/18 10:18:37;;;;;;;3.70;2.20;;;;;;;32.03;31.91;101130.00;108139;1253;60400;-81
2023/08/18 10:21:04;;;;;;;2.90;2.10;;;;;;;32.12;31.91;101130.42;108047;1256;65067;-80
2023/08/18 10:23:33;;;;;;;4.00;2.00;;;;;;;32.26;32.88;101129.59;108115;1253;62500;-81
2023/08/18 10:26:02;;;;;;;4.30;2.10;;;;;;;32.50;32.74;101127.91;108054;1253;64032;-84
2023/08/18 10:28:32;;;;;;;3.50;2.60;;;;;;;32.72;31.98;101119.70;108139;1253;60329;-84
2023/08/18 10:31:04;;;;;;;6.10;2.30;;;;;;;32.87;31.82;101117.80;108248;1253;60193;-83
2023/08/18 10:33:38;;;;;;;3.90;2.00;;;;;;;32.87;31.24;101118.83;108166;1253;65243;-83
2023/08/18 10:36:07;;;;;;;7.30;2.30;;;;;;;32.72;30.77;101118.13;108097;1253;64531;-82
2023/08/18 10:38:39;;;;;;;4.90;2.20;;;;;;;32.50;31.12;101115.59;108035;1256;62991;-72
2023/08/18 10:41:06;;;;;;;4.80;2.40;;;;;;;32.40;31.03;101119.27;107931;1253;60462;-72
2023/08/18 10:43:41;;;;;;;3.70;2.10;;;;;;;32.35;31.17;101116.73;107965;1253;60296;-72
2023/08/18 10:46:12;;;;;;;5.10;1.90;;;;;;;32.40;30.42;101117.86;107914;1253;63753;-71
2023/08/18 10:48:40;;;;;;;3.20;2.00;;;;;;;32.47;30.29;101112.43;107856;1255;63321;-71
2023/08/18 10:51:07;;;;;;;3.10;1.80;;;;;;;32.52;30.16;101108.09;108046;1253;64024;-72
2023/08/18 10:53:37;;;;;;;4.30;2.10;;;;;;;32.54;31.25;101110.54;107886;1253;60464;-72
2023/08/18 10:56:04;;;;;;;5.90;2.20;;;;;;;32.62;31.72;101108.09;107927;1255;59390;-71
2023/08/18 10:58:34;;;;;;;3.10;1.90;;;;;;;32.77;31.77;101107.77;108044;1253;64017;-72
2023/08/18 11:01:03;;;;;;;3.50;2.20;;;;;;;32.91;31.38;101106.27;108030;1253;65314;-73
2023/08/18 11:03:33;;;;;;;3.00;2.10;;;;;;;32.99;31.53;101106.92;108022;1253;64084;-73
2023/08/18 11:06:03;;;;;;;5.80;2.10;;;;;;;33.11;31.14;101099.62;107831;1256;60283;-72
2023/08/18 11:08:31;;;;;;;3.70;2.00;;;;;;;33.30;31.19;101100.61;107937;1255;60370;-72
2023/08/18 11:10:58;;;;;;;4.90;2.20;;;;;;;33.51;30.54;101103.96;107973;1253;64918;-71
2023/08/18 11:13:26;;;;;;;3.50;2.00;;;;;;;33.56;29.36;101100.08;107831;1254;64332;-71
2023/08/18 11:15:53;;;;;;;5.40;2.00;;;;;;;33.48;30.11;101104.05;107845;1253;62560;-71
2023/08/18 11:18:21;;;;;;;4.00;2.00;;;;;;;33.49;30.24;101102.70;107940;1253;60940;-72
2023/08/18 11:20:48;;;;;;;4.30;1.80;;;;;;;33.56;30.12;101099.44;107925;1253;61826;-72
2023/08/18 11:23:15;;;;;;;3.90;1.90;;;;;;;33.64;29.59;101100.45;107936;1253;65060;-71